Time;durP1;ratioP1;P1;durP2;ratioP2;P2;SDS_P1;SDS_P2;PMS_P1;PMS_P2;Temp;Humidity;BMP_temperature;BMP_pressure;BME280_temperature;BME280_humidity;BME280_pressure;Samples;Min_cycle;Max_cycle;Signal;HPM_P1;HPM_P2
2024/01/02 00:02:16;;;;;;;17.17;3.80;;;;;;;;;;5074910;28;20102;-70
2024/01/02 00:04:41;;;;;;;14.13;3.10;;;;;;;;;;5075151;28;20499;-70
2024/01/02 00:07:07;;;;;;;14.88;3.58;;;;;;;;;;5073807;28;20098;-70
2024/01/02 00:09:33;;;;;;;13.88;3.63;;;;;;;;;;5075067;28;20043;-70
2024/01/02 00:12:00;;;;;;;14.45;3.40;;;;;;;;;;5073607;28;20127;-70
2024/01/02 00:14:28;;;;;;;13.85;3.90;;;;;;;;;;5073339;28;20040;-70
2024/01/02 00:16:54;;;;;;;14.40;3.50;;;;;;;;;;5073402;28;20045;-70
2024/01/02 00:19:20;;;;;;;11.25;2.70;;;;;;;;;;5073320;28;20055;-70
2024/01/02 00:21:46;;;;;;;13.25;2.92;;;;;;;;;;5074771;28;20089;-70
2024/01/02 00:24:12;;;;;;;10.25;2.55;;;;;;;;;;5073139;28;20079;-70
2024/01/02 00:26:40;;;;;;;10.55;2.33;;;;;;;;;;5074700;28;20076;-70
2024/01/02 00:29:05;;;;;;;11.70;2.60;;;;;;;;;;5074700;28;20052;-70
2024/01/02 00:31:31;;;;;;;11.05;2.67;;;;;;;;;;5073060;28;20049;-70
2024/01/02 00:33:57;;;;;;;8.18;2.63;;;;;;;;;;5074378;28;20040;-70
2024/01/02 00:36:23;;;;;;;11.50;2.72;;;;;;;;;;5072978;28;20405;-70
2024/01/02 00:38:49;;;;;;;8.93;1.92;;;;;;;;;;5073149;28;20040;-70
2024/01/02 00:41:15;;;;;;;18.02;3.42;;;;;;;;;;5072883;28;20550;-70
2024/01/02 00:43:41;;;;;;;11.20;2.83;;;;;;;;;;5072786;28;20123;-69
2024/01/02 00:46:07;;;;;;;11.95;2.25;;;;;;;;;;5072771;28;20062;-69
2024/01/02 00:48:33;;;;;;;13.55;2.70;;;;;;;;;;5074303;28;20040;-69
2024/01/02 00:51:01;;;;;;;12.25;2.55;;;;;;;;;;5072726;28;20519;-69
2024/01/02 00:53:27;;;;;;;12.57;2.83;;;;;;;;;;5072507;28;20076;-70
2024/01/02 00:55:53;;;;;;;13.65;2.40;;;;;;;;;;5072900;28;20098;-70
2024/01/02 00:58:19;;;;;;;10.20;2.60;;;;;;;;;;5072423;28;20056;-70
2024/01/02 01:00:45;;;;;;;13.95;2.47;;;;;;;;;;5072541;28;20072;-70
2024/01/02 01:03:11;;;;;;;12.25;2.33;;;;;;;;;;5073640;28;20083;-70
2024/01/02 01:05:37;;;;;;;13.60;2.65;;;;;;;;;;5072434;28;20492;-70
2024/01/02 01:08:03;;;;;;;14.63;2.97;;;;;;;;;;5073901;28;20054;-70
2024/01/02 01:10:29;;;;;;;10.40;2.42;;;;;;;;;;5072642;28;20404;-70
2024/01/02 01:12:55;;;;;;;13.38;2.67;;;;;;;;;;5072163;28;20044;-70
2024/01/02 01:15:21;;;;;;;8.88;2.28;;;;;;;;;;5072250;28;20048;-70
2024/01/02 01:17:47;;;;;;;16.35;3.03;;;;;;;;;;5073819;28;20036;-70
2024/01/02 01:20:13;;;;;;;15.77;2.65;;;;;;;;;;5072226;28;20063;-70
2024/01/02 01:22:39;;;;;;;18.20;2.97;;;;;;;;;;5072137;28;20127;-70
2024/01/02 01:25:05;;;;;;;13.95;2.30;;;;;;;;;;5072091;28;20113;-70
2024/01/02 01:27:31;;;;;;;13.65;3.10;;;;;;;;;;5072138;28;20045;-70
2024/01/02 01:29:57;;;;;;;14.27;2.55;;;;;;;;;;5072106;28;20044;-70
2024/01/02 01:32:23;;;;;;;15.13;2.97;;;;;;;;;;5071908;28;20091;-70
2024/01/02 01:34:49;;;;;;;12.20;2.90;;;;;;;;;;5073503;28;20040;-70
2024/01/02 01:37:15;;;;;;;13.95;2.97;;;;;;;;;;5072208;28;20127;-70
2024/01/02 01:39:41;;;;;;;12.88;2.95;;;;;;;;;;5073475;28;20603;-70
2024/01/02 01:42:08;;;;;;;18.55;3.05;;;;;;;;;;5073358;28;20037;-70
2024/01/02 01:44:34;;;;;;;15.07;2.83;;;;;;;;;;5073470;28;20125;-70
2024/01/02 01:47:00;;;;;;;13.82;2.90;;;;;;;;;;5073091;28;20068;-70
2024/01/02 01:49:26;;;;;;;19.83;2.92;;;;;;;;;;5072193;28;20072;-70
2024/01/02 01:51:54;;;;;;;15.45;3.45;;;;;;;;;;5071742;28;20443;-70
2024/01/02 01:54:21;;;;;;;14.73;3.65;;;;;;;;;;5073258;28;20037;-70
2024/01/02 01:56:47;;;;;;;17.27;2.85;;;;;;;;;;5071807;28;20053;-70
2024/01/02 01:59:13;;;;;;;14.10;3.33;;;;;;;;;;5071768;28;20049;-70
2024/01/02 02:01:40;;;;;;;12.95;3.17;;;;;;;;;;5071951;28;20044;-70
2024/01/02 02:04:06;;;;;;;14.45;3.40;;;;;;;;;;5072758;28;20526;-70
2024/01/02 02:06:32;;;;;;;13.90;3.42;;;;;;;;;;5072862;28;20405;-70
2024/01/02 02:08:58;;;;;;;15.02;3.80;;;;;;;;;;5071659;28;20040;-70
2024/01/02 02:11:25;;;;;;;16.73;3.83;;;;;;;;;;5075746;28;20040;-70
2024/01/02 02:13:52;;;;;;;15.43;3.83;;;;;;;;;;5077079;28;20048;-70
2024/01/02 02:16:18;;;;;;;18.40;4.25;;;;;;;;;;5076774;28;20072;-70
2024/01/02 02:18:44;;;;;;;11.68;3.88;;;;;;;;;;5075650;28;20044;-70
2024/01/02 02:21:10;;;;;;;13.93;3.85;;;;;;;;;;5077420;28;20040;-70
2024/01/02 02:23:36;;;;;;;14.90;4.15;;;;;;;;;;5076794;28;20083;-70
2024/01/02 02:26:03;;;;;;;15.50;4.13;;;;;;;;;;5075819;28;20133;-70
2024/01/02 02:28:28;;;;;;;12.18;4.53;;;;;;;;;;5076687;28;20144;-70
2024/01/02 02:30:54;;;;;;;19.23;4.70;;;;;;;;;;5077039;28;20032;-70
2024/01/02 02:33:20;;;;;;;17.65;4.30;;;;;;;;;;5076745;28;20408;-70
2024/01/02 02:35:46;;;;;;;14.95;4.82;;;;;;;;;;5076588;28;20040;-70
2024/01/02 02:38:12;;;;;;;15.23;4.25;;;;;;;;;;5076503;28;20552;-70
2024/01/02 02:40:39;;;;;;;15.60;4.65;;;;;;;;;;5076758;28;20124;-70
2024/01/02 02:43:05;;;;;;;16.30;4.20;;;;;;;;;;5075339;28;20048;-71
2024/01/02 02:45:33;;;;;;;19.50;4.15;;;;;;;;;;5058476;28;20048;-70
2024/01/02 02:47:59;;;;;;;13.68;4.55;;;;;;;;;;5076601;28;20052;-70
2024/01/02 02:50:25;;;;;;;14.45;3.75;;;;;;;;;;5058663;28;20451;-70
2024/01/02 02:52:51;;;;;;;13.77;4.28;;;;;;;;;;5076353;28;20036;-70
2024/01/02 02:55:17;;;;;;;10.70;3.95;;;;;;;;;;5076144;28;20378;-70
2024/01/02 02:57:43;;;;;;;18.98;5.15;;;;;;;;;;5074967;28;20047;-70
2024/01/02 03:00:10;;;;;;;15.93;4.22;;;;;;;;;;5076369;28;20115;-70
2024/01/02 03:02:36;;;;;;;11.70;3.40;;;;;;;;;;5074274;28;20101;-70
2024/01/02 03:05:02;;;;;;;13.70;3.75;;;;;;;;;;5073825;28;20040;-70
2024/01/02 03:07:28;;;;;;;12.57;3.38;;;;;;;;;;5075089;28;20040;-70
2024/01/02 03:09:54;;;;;;;14.25;3.85;;;;;;;;;;5074660;28;20044;-70
2024/01/02 03:12:20;;;;;;;12.60;3.42;;;;;;;;;;5074527;28;20044;-70
2024/01/02 03:14:47;;;;;;;10.60;3.10;;;;;;;;;;5073411;28;20036;-70
2024/01/02 03:17:13;;;;;;;13.52;3.53;;;;;;;;;;5074611;28;20413;-70
2024/01/02 03:19:39;;;;;;;10.93;3.17;;;;;;;;;;5073383;28;20132;-70
2024/01/02 03:22:05;;;;;;;8.45;2.60;;;;;;;;;;5072812;28;20119;-70
2024/01/02 03:24:31;;;;;;;10.38;3.35;;;;;;;;;;5073259;28;20037;-70
2024/01/02 03:26:57;;;;;;;8.75;2.70;;;;;;;;;;5073222;28;20040;-70
2024/01/02 03:29:26;;;;;;;11.73;2.80;;;;;;;;;;5073458;28;20098;-70
2024/01/02 03:31:52;;;;;;;10.20;2.90;;;;;;;;;;5074686;28;20037;-70
2024/01/02 03:34:18;;;;;;;12.80;3.30;;;;;;;;;;5074485;28;20041;-70
2024/01/02 03:36:45;;;;;;;12.30;3.55;;;;;;;;;;5073083;28;20036;-70
2024/01/02 03:39:11;;;;;;;11.40;3.50;;;;;;;;;;5073351;28;20097;-70
2024/01/02 03:41:37;;;;;;;12.07;3.70;;;;;;;;;;5072997;28;20036;-70
2024/01/02 03:44:03;;;;;;;13.43;4.10;;;;;;;;;;5073188;28;20044;-70
2024/01/02 03:46:29;;;;;;;8.73;3.58;;;;;;;;;;5074192;28;20409;-70
2024/01/02 03:48:55;;;;;;;12.80;4.43;;;;;;;;;;5074402;28;20043;-70
2024/01/02 03:51:21;;;;;;;11.95;3.72;;;;;;;;;;5074383;28;20043;-70
2024/01/02 03:53:47;;;;;;;10.52;3.42;;;;;;;;;;5072667;28;20118;-70
2024/01/02 03:56:16;;;;;;;12.98;2.85;;;;;;;;;;5072998;28;20133;-70
2024/01/02 03:58:42;;;;;;;10.13;3.58;;;;;;;;;;5072708;28;20041;-70
2024/01/02 04:01:08;;;;;;;15.20;4.20;;;;;;;;;;5072943;28;20042;-70
2024/01/02 04:03:34;;;;;;;11.53;3.90;;;;;;;;;;5035732;28;1100230;-70
2024/01/02 04:06:00;;;;;;;9.57;3.63;;;;;;;;;;5073630;28;20083;-70
2024/01/02 04:08:26;;;;;;;9.23;3.80;;;;;;;;;;5073565;28;20101;-70
2024/01/02 04:10:52;;;;;;;13.30;3.60;;;;;;;;;;5073555;28;20123;-70
2024/01/02 04:13:18;;;;;;;10.52;3.40;;;;;;;;;;5073304;28;20151;-70
2024/01/02 04:15:44;;;;;;;14.02;4.20;;;;;;;;;;5073658;28;20052;-70
2024/01/02 04:18:10;;;;;;;12.65;2.95;;;;;;;;;;5073366;28;20489;-70
2024/01/02 04:20:36;;;;;;;9.57;2.92;;;;;;;;;;5073282;28;20409;-70
2024/01/02 04:23:02;;;;;;;8.65;2.65;;;;;;;;;;5074980;28;20044;-70
2024/01/02 04:25:28;;;;;;;8.98;3.13;;;;;;;;;;5073461;28;20573;-70
2024/01/02 04:27:55;;;;;;;11.70;3.83;;;;;;;;;;5073425;28;20040;-70
2024/01/02 04:30:22;;;;;;;10.68;2.78;;;;;;;;;;5073126;28;20515;-70
2024/01/02 04:32:48;;;;;;;9.23;2.40;;;;;;;;;;5073818;28;20120;-70
2024/01/02 04:35:14;;;;;;;7.50;2.22;;;;;;;;;;5073231;28;20036;-70
2024/01/02 04:37:40;;;;;;;8.43;2.40;;;;;;;;;;5072962;28;20098;-70
2024/01/02 04:40:06;;;;;;;7.88;2.22;;;;;;;;;;5072915;28;20036;-70
2024/01/02 04:42:36;;;;;;;5.63;2.10;;;;;;;;;;5074325;28;20040;-70
2024/01/02 04:45:03;;;;;;;5.72;1.80;;;;;;;;;;5072872;28;20048;-70
2024/01/02 04:47:29;;;;;;;6.93;2.10;;;;;;;;;;5072770;28;20441;-70
2024/01/02 04:49:55;;;;;;;5.43;1.80;;;;;;;;;;5056397;28;20072;-70
2024/01/02 04:52:21;;;;;;;10.25;2.10;;;;;;;;;;5074050;28;20098;-70
2024/01/02 04:54:48;;;;;;;6.18;1.63;;;;;;;;;;5074149;28;20036;-70
2024/01/02 04:57:14;;;;;;;3.88;1.60;;;;;;;;;;5072611;28;20040;-70
2024/01/02 04:59:40;;;;;;;9.60;1.95;;;;;;;;;;5072834;28;20067;-70
2024/01/02 05:02:06;;;;;;;5.20;1.30;;;;;;;;;;5072341;28;20493;-70
2024/01/02 05:04:33;;;;;;;5.60;1.58;;;;;;;;;;5073702;28;20072;-70
2024/01/02 05:06:59;;;;;;;5.72;1.30;;;;;;;;;;5072409;28;20059;-70
2024/01/02 05:09:27;;;;;;;6.10;1.70;;;;;;;;;;5072353;28;20032;-70
2024/01/02 05:11:53;;;;;;;6.10;1.67;;;;;;;;;;5072322;28;20036;-70
2024/01/02 05:14:19;;;;;;;5.90;1.63;;;;;;;;;;5073037;28;20049;-70
2024/01/02 05:16:45;;;;;;;4.43;1.48;;;;;;;;;;5073771;28;20485;-70
2024/01/02 05:19:11;;;;;;;4.65;1.33;;;;;;;;;;5073403;28;20072;-70
2024/01/02 05:21:37;;;;;;;6.22;1.40;;;;;;;;;;5072199;28;20041;-70
2024/01/02 05:24:03;;;;;;;6.15;1.45;;;;;;;;;;5073617;28;20400;-70
2024/01/02 05:26:29;;;;;;;6.15;1.50;;;;;;;;;;5072124;28;20049;-70
2024/01/02 05:28:55;;;;;;;6.40;1.35;;;;;;;;;;5073630;28;20062;-70
2024/01/02 05:31:21;;;;;;;3.30;1.27;;;;;;;;;;5073273;28;20036;-70
2024/01/02 05:33:47;;;;;;;3.72;1.38;;;;;;;;;;5073414;28;20504;-70
2024/01/02 05:36:13;;;;;;;3.60;1.30;;;;;;;;;;5073197;28;20032;-70
2024/01/02 05:38:39;;;;;;;4.03;1.20;;;;;;;;;;5071985;28;20041;-70
2024/01/02 05:41:05;;;;;;;4.28;1.50;;;;;;;;;;5073479;28;20092;-70
2024/01/02 05:43:31;;;;;;;5.25;1.33;;;;;;;;;;5073397;28;20124;-70
2024/01/02 05:45:57;;;;;;;4.15;1.10;;;;;;;;;;5071779;28;20128;-70
2024/01/02 05:48:23;;;;;;;4.18;1.60;;;;;;;;;;5071806;28;20036;-70
2024/01/02 05:50:49;;;;;;;5.75;1.83;;;;;;;;;;5073428;28;20044;-70
2024/01/02 05:53:15;;;;;;;4.50;1.67;;;;;;;;;;5073180;28;20049;-70
2024/01/02 05:55:41;;;;;;;2.30;1.20;;;;;;;;;;5071795;28;20047;-70
2024/01/02 05:58:07;;;;;;;5.43;1.50;;;;;;;;;;5071784;28;20036;-70
2024/01/02 06:00:33;;;;;;;3.42;1.45;;;;;;;;;;5071782;28;20058;-70
2024/01/02 06:02:59;;;;;;;2.70;1.27;;;;;;;;;;5072894;28;20047;-70
2024/01/02 06:05:25;;;;;;;3.50;1.17;;;;;;;;;;5071704;28;20044;-70
2024/01/02 06:07:51;;;;;;;2.88;1.20;;;;;;;;;;5073172;28;20091;-70
2024/01/02 06:10:17;;;;;;;2.50;1.15;;;;;;;;;;5072858;28;20083;-70
2024/01/02 06:12:43;;;;;;;2.67;1.08;;;;;;;;;;5073038;28;20037;-70
2024/01/02 06:15:09;;;;;;;1.92;1.02;;;;;;;;;;5072824;28;20033;-70
2024/01/02 06:17:35;;;;;;;1.45;0.90;;;;;;;;;;5071624;28;20036;-70
2024/01/02 06:20:04;;;;;;;1.95;1.02;;;;;;;;;;5071603;28;20116;-70
2024/01/02 06:22:30;;;;;;;2.13;0.77;;;;;;;;;;5071482;28;20127;-70
2024/01/02 06:24:56;;;;;;;0.77;0.60;;;;;;;;;;5071566;28;20083;-70
2024/01/02 06:27:22;;;;;;;2.25;1.15;;;;;;;;;;5071510;28;20082;-70
2024/01/02 06:29:48;;;;;;;2.67;1.00;;;;;;;;;;5071482;28;20080;-70
2024/01/02 06:32:14;;;;;;;1.23;0.70;;;;;;;;;;5071349;28;20492;-70
2024/01/02 06:34:40;;;;;;;2.03;0.70;;;;;;;;;;5071484;28;20040;-70
2024/01/02 06:37:06;;;;;;;2.58;0.90;;;;;;;;;;5072618;28;20128;-70
2024/01/02 06:39:32;;;;;;;1.42;0.90;;;;;;;;;;5071362;28;20050;-70
2024/01/02 06:41:58;;;;;;;1.00;0.77;;;;;;;;;;5071380;28;20051;-70
2024/01/02 06:44:24;;;;;;;1.13;0.70;;;;;;;;;;5072796;28;20075;-70
2024/01/02 06:46:50;;;;;;;1.25;0.80;;;;;;;;;;5071289;28;20139;-70
2024/01/02 06:49:16;;;;;;;1.20;0.90;;;;;;;;;;5071335;28;20037;-70
2024/01/02 06:51:42;;;;;;;1.38;0.80;;;;;;;;;;5071373;28;20102;-70
2024/01/02 06:54:08;;;;;;;2.70;1.10;;;;;;;;;;5072664;28;20052;-70
2024/01/02 06:56:34;;;;;;;1.25;1.10;;;;;;;;;;5072204;28;20040;-70
2024/01/02 06:59:00;;;;;;;1.88;1.30;;;;;;;;;;5074899;28;20052;-70
2024/01/02 07:01:26;;;;;;;1.10;1.00;;;;;;;;;;5074862;28;20040;-70
2024/01/02 07:03:52;;;;;;;1.77;1.52;;;;;;;;;;5075837;28;20044;-70
2024/01/02 07:06:18;;;;;;;1.80;1.40;;;;;;;;;;5074809;28;20040;-70
2024/01/02 07:08:44;;;;;;;1.80;1.52;;;;;;;;;;5074739;28;20218;-70
2024/01/02 07:11:10;;;;;;;1.60;1.33;;;;;;;;;;5076178;28;20119;-70
2024/01/02 07:13:36;;;;;;;2.38;1.67;;;;;;;;;;5074474;28;20552;-70
2024/01/02 07:16:02;;;;;;;1.77;1.63;;;;;;;;;;5075839;28;20048;-70
2024/01/02 07:18:30;;;;;;;1.98;1.77;;;;;;;;;;5074806;28;20040;-70
2024/01/02 07:20:56;;;;;;;1.98;1.77;;;;;;;;;;5076025;28;20040;-70
2024/01/02 07:23:23;;;;;;;2.20;1.92;;;;;;;;;;5075895;28;20120;-70
2024/01/02 07:25:49;;;;;;;2.47;2.17;;;;;;;;;;5075969;28;20048;-70
2024/01/02 07:28:15;;;;;;;2.58;2.38;;;;;;;;;;5074349;28;20048;-70
2024/01/02 07:30:41;;;;;;;3.28;2.65;;;;;;;;;;5075505;28;20048;-70
2024/01/02 07:33:07;;;;;;;2.55;2.33;;;;;;;;;;5074071;28;20040;-70
2024/01/02 07:35:33;;;;;;;3.28;2.67;;;;;;;;;;5075741;28;20043;-70
2024/01/02 07:37:59;;;;;;;2.80;2.40;;;;;;;;;;5074398;28;20040;-71
2024/01/02 07:40:25;;;;;;;3.33;2.90;;;;;;;;;;5075627;28;20107;-70
2024/01/02 07:42:51;;;;;;;3.92;2.80;;;;;;;;;;5074034;28;20052;-70
2024/01/02 07:45:17;;;;;;;3.20;2.75;;;;;;;;;;5075562;28;20043;-70
2024/01/02 07:47:43;;;;;;;3.80;2.97;;;;;;;;;;5073969;28;20037;-70
2024/01/02 07:50:09;;;;;;;3.63;3.10;;;;;;;;;;5075534;28;20479;-70
2024/01/02 07:52:35;;;;;;;4.13;3.25;;;;;;;;;;5074067;28;20067;-70
2024/01/02 07:55:02;;;;;;;5.13;3.08;;;;;;;;;;5073887;28;20413;-70
2024/01/02 07:57:28;;;;;;;4.13;3.03;;;;;;;;;;5073790;28;20036;-70
2024/01/02 07:59:54;;;;;;;4.43;2.97;;;;;;;;;;5073759;28;20044;-70
2024/01/02 08:02:20;;;;;;;6.32;3.22;;;;;;;;;;5074732;28;20043;-70
2024/01/02 08:04:46;;;;;;;5.20;3.42;;;;;;;;;;5075230;28;20033;-70
2024/01/02 08:07:12;;;;;;;6.55;3.70;;;;;;;;;;5073465;28;20052;-70
2024/01/02 08:09:38;;;;;;;8.82;4.10;;;;;;;;;;5074518;28;20043;-70
2024/01/02 08:12:05;;;;;;;8.07;4.82;;;;;;;;;;5073758;28;20036;-70
2024/01/02 08:14:31;;;;;;;14.55;5.32;;;;;;;;;;5073422;28;20049;-70
2024/01/02 08:16:57;;;;;;;8.65;5.30;;;;;;;;;;5074972;28;20040;-70
2024/01/02 08:19:23;;;;;;;12.18;5.30;;;;;;;;;;5073400;28;20041;-70
2024/01/02 08:21:49;;;;;;;16.60;5.93;;;;;;;;;;5073342;28;20062;-71
2024/01/02 08:24:15;;;;;;;15.35;6.22;;;;;;;;;;5073480;28;20048;-71
2024/01/02 08:26:41;;;;;;;19.25;6.50;;;;;;;;;;5074381;28;20518;-70
2024/01/02 08:29:07;;;;;;;18.40;5.55;;;;;;;;;;5074697;28;20123;-70
2024/01/02 08:31:33;;;;;;;13.15;5.82;;;;;;;;;;5073381;28;20075;-71
2024/01/02 08:33:59;;;;;;;16.17;5.90;;;;;;;;;;5074488;28;20041;-71
2024/01/02 08:36:28;;;;;;;16.25;4.60;;;;;;;;;;5073058;28;20037;-71
2024/01/02 08:38:54;;;;;;;19.75;4.13;;;;;;;;;;5074504;28;20036;-71
2024/01/02 08:41:20;;;;;;;15.30;3.83;;;;;;;;;;5072885;28;20041;-71
2024/01/02 08:43:47;;;;;;;17.48;3.63;;;;;;;;;;5074329;28;20049;-71
2024/01/02 08:46:13;;;;;;;17.02;3.30;;;;;;;;;;5072846;28;20040;-71
2024/01/02 08:48:39;;;;;;;19.20;3.08;;;;;;;;;;5074067;28;20072;-71
2024/01/02 08:51:05;;;;;;;20.25;2.75;;;;;;;;;;5074262;28;20040;-71
2024/01/02 08:53:32;;;;;;;17.45;3.10;;;;;;;;;;5073754;28;20040;-71
2024/01/02 08:55:58;;;;;;;18.48;2.88;;;;;;;;;;5074157;28;20062;-71
2024/01/02 08:58:24;;;;;;;19.83;3.20;;;;;;;;;;5072775;28;20048;-71
2024/01/02 09:00:50;;;;;;;13.23;2.50;;;;;;;;;;5072565;28;20052;-71
2024/01/02 09:03:16;;;;;;;18.60;2.95;;;;;;;;;;5073594;28;20043;-71
2024/01/02 09:05:42;;;;;;;25.30;3.40;;;;;;;;;;5073986;28;20083;-71
2024/01/02 09:08:08;;;;;;;22.67;2.80;;;;;;;;;;5072407;28;20074;-71
2024/01/02 09:10:34;;;;;;;22.30;3.45;;;;;;;;;;5073912;28;20040;-71
2024/01/02 09:13:00;;;;;;;23.30;3.58;;;;;;;;;;5072435;28;20071;-71
2024/01/02 09:15:26;;;;;;;24.83;3.97;;;;;;;;;;5072801;28;20512;-71
2024/01/02 09:17:52;;;;;;;25.02;3.45;;;;;;;;;;5072279;28;20040;-71
2024/01/02 09:20:18;;;;;;;24.92;3.65;;;;;;;;;;5073389;28;20036;-71
2024/01/02 09:22:44;;;;;;;22.95;3.45;;;;;;;;;;5072086;28;20141;-71
2024/01/02 09:25:12;;;;;;;18.60;3.50;;;;;;;;;;5073665;28;20521;-71
2024/01/02 09:27:38;;;;;;;20.33;3.75;;;;;;;;;;5073645;28;20044;-71
2024/01/02 09:30:05;;;;;;;28.67;3.65;;;;;;;;;;5072052;28;20424;-71
2024/01/02 09:32:31;;;;;;;20.55;3.35;;;;;;;;;;5072186;28;20044;-71
2024/01/02 09:34:57;;;;;;;24.08;3.25;;;;;;;;;;5072042;28;20036;-71
2024/01/02 09:37:23;;;;;;;25.35;4.03;;;;;;;;;;5072272;28;20127;-71
2024/01/02 09:39:49;;;;;;;24.83;3.85;;;;;;;;;;5073509;28;20085;-71
2024/01/02 09:42:38;;;;;;;28.25;3.40;;;;;;;;;;5071855;28;20044;-71
2024/01/02 09:45:04;;;;;;;21.52;4.43;;;;;;;;;;5071920;28;20386;-71
2024/01/02 09:47:49;;;;;;;22.48;3.13;;;;;;;;;;5073489;28;20043;-71
2024/01/02 09:50:22;;;;;;;25.83;3.22;;;;;;;;;;5072090;28;20044;-71
2024/01/02 09:53:03;;;;;;;23.45;4.22;;;;;;;;;;5072719;28;20473;-71
2024/01/02 09:55:35;;;;;;;22.30;3.03;;;;;;;;;;5071804;28;20420;-71
2024/01/02 09:58:02;;;;;;;24.40;3.58;;;;;;;;;;5071806;28;20055;-71
2024/01/02 10:00:31;;;;;;;28.05;4.05;;;;;;;;;;5073274;28;20127;-71
2024/01/02 10:03:03;;;;;;;24.55;4.18;;;;;;;;;;5071579;28;20045;-70
2024/01/02 10:05:38;;;;;;;22.73;3.07;;;;;;;;;;5071749;28;20128;-70
2024/01/02 10:08:23;;;;;;;20.88;3.10;;;;;;;;;;5071782;28;20048;-70
2024/01/02 10:10:55;;;;;;;16.65;2.75;;;;;;;;;;5071723;28;20045;-70
2024/01/02 10:13:25;;;;;;;28.23;4.35;;;;;;;;;;5073042;28;20037;-71
2024/01/02 10:16:00;;;;;;;19.38;3.35;;;;;;;;;;5071636;28;20040;-71
2024/01/02 10:18:45;;;;;;;21.30;3.40;;;;;;;;;;5055187;28;20040;-71
2024/01/02 10:21:14;;;;;;;20.10;2.92;;;;;;;;;;5071575;28;20076;-71
2024/01/02 10:24:01;;;;;;;21.75;3.88;;;;;;;;;;5072996;28;20037;-71
2024/01/02 10:26:27;;;;;;;13.10;2.88;;;;;;;;;;5071690;28;20051;-71
2024/01/02 10:28:57;;;;;;;22.73;3.92;;;;;;;;;;5071770;28;20130;-71
2024/01/02 10:31:26;;;;;;;18.20;3.50;;;;;;;;;;5072206;28;20493;-71
2024/01/02 10:33:58;;;;;;;13.60;2.60;;;;;;;;;;5075235;28;20076;-71
2024/01/02 10:36:27;;;;;;;18.10;3.03;;;;;;;;;;5075378;28;20032;-71
2024/01/02 10:38:56;;;;;;;22.30;3.65;;;;;;;;;;5076790;28;20093;-71
2024/01/02 10:41:33;;;;;;;20.83;2.95;;;;;;;;;;5076487;28;20480;-71
2024/01/02 10:43:59;;;;;;;22.90;3.28;;;;;;;;;;5076674;28;20040;-71
2024/01/02 10:46:25;;;;;;;21.83;3.45;;;;;;;;;;5076642;28;20044;-72
2024/01/02 10:48:55;;;;;;;24.20;4.13;;;;;;;;;;5076593;28;20098;-72
2024/01/02 10:51:41;;;;;;;19.35;3.47;;;;;;;;;;5075003;28;20466;-71
2024/01/02 10:54:15;;;;;;;16.23;2.83;;;;;;;;;;5074882;28;20124;-71
2024/01/02 10:56:49;;;;;;;24.35;3.08;;;;;;;;;;5076231;28;20051;-71
2024/01/02 10:59:22;;;;;;;24.80;3.85;;;;;;;;;;5075237;28;20048;-71
2024/01/02 11:01:49;;;;;;;21.50;4.00;;;;;;;;;;5074879;28;20090;-71
2024/01/02 11:04:35;;;;;;;23.15;4.18;;;;;;;;;;5074640;28;20045;-71
2024/01/02 11:07:05;;;;;;;20.35;3.28;;;;;;;;;;5074785;28;20051;-71
2024/01/02 11:09:41;;;;;;;22.20;3.72;;;;;;;;;;5074745;28;20058;-71
2024/01/02 11:12:09;;;;;;;18.63;3.80;;;;;;;;;;5074853;28;20503;-71
2024/01/02 11:14:36;;;;;;;22.52;3.45;;;;;;;;;;5074525;28;20045;-71
2024/01/02 11:17:03;;;;;;;21.42;4.78;;;;;;;;;;5076113;28;20094;-71
2024/01/02 11:19:34;;;;;;;20.05;3.92;;;;;;;;;;5075975;28;20521;-71
2024/01/02 11:22:11;;;;;;;20.73;4.30;;;;;;;;;;5076034;28;20115;-71
2024/01/02 11:24:42;;;;;;;29.65;7.18;;;;;;;;;;5074453;28;20481;-71
2024/01/02 11:27:10;;;;;;;24.17;5.70;;;;;;;;;;5074407;28;20048;-71
2024/01/02 11:29:37;;;;;;;22.77;4.55;;;;;;;;;;5075872;28;20068;-71
2024/01/02 11:32:09;;;;;;;21.15;5.50;;;;;;;;;;5075806;28;20045;-71
2024/01/02 11:35:00;;;;;;;20.20;3.40;;;;;;;;;;5074253;28;20451;-71
2024/01/02 11:37:26;;;;;;;22.77;3.97;;;;;;;;;;5074226;28;20052;-71
2024/01/02 11:39:52;;;;;;;19.15;3.15;;;;;;;;;;5076008;28;20036;-71
2024/01/02 11:42:21;;;;;;;26.65;5.75;;;;;;;;;;5075269;28;20036;-71
2024/01/02 11:44:50;;;;;;;31.05;7.75;;;;;;;;;;5074279;28;20076;-70
2024/01/02 11:47:24;;;;;;;26.33;7.78;;;;;;;;;;5073985;28;20037;-70
2024/01/02 11:49:53;;;;;;;29.42;4.93;;;;;;;;;;5073964;28;20138;-70
2024/01/02 11:52:20;;;;;;;26.85;7.35;;;;;;;;;;5073791;28;20040;-70
2024/01/02 11:54:53;;;;;;;31.88;8.70;;;;;;;;;;5074168;28;20048;-70
2024/01/02 11:57:25;;;;;;;33.95;6.75;;;;;;;;;;5073888;28;20048;-70
2024/01/02 12:00:06;;;;;;;28.17;5.38;;;;;;;;;;5075347;28;20032;-70
2024/01/02 12:02:51;;;;;;;31.20;5.43;;;;;;;;;;5073748;28;20481;-70
2024/01/02 12:05:29;;;;;;;37.25;6.55;;;;;;;;;;5073701;28;20038;-70
2024/01/02 12:07:56;;;;;;;29.60;6.97;;;;;;;;;;5073712;28;20051;-70
2024/01/02 12:10:29;;;;;;;32.42;5.82;;;;;;;;;;5073572;28;20094;-70
2024/01/02 12:12:55;;;;;;;;;;;;;;;;;;5074663;28;20040;-70
2024/01/02 12:15:24;;;;;;;33.60;5.80;;;;;;;;;;5075235;28;20269;-70
2024/01/02 12:18:01;;;;;;;34.15;7.22;;;;;;;;;;5075441;28;20120;-70
2024/01/02 12:20:29;;;;;;;29.67;5.35;;;;;;;;;;5075128;28;20040;-70
2024/01/02 12:22:55;;;;;;;31.05;5.70;;;;;;;;;;5073316;28;20556;-70
2024/01/02 12:25:21;;;;;;;32.08;6.35;;;;;;;;;;5056706;28;20048;-70
2024/01/02 12:27:50;;;;;;;30.92;5.88;;;;;;;;;;5073505;28;20056;-70
2024/01/02 12:30:21;;;;;;;27.00;6.00;;;;;;;;;;5073224;28;20597;-70
2024/01/02 12:32:51;;;;;;;34.28;6.00;;;;;;;;;;5074632;28;20040;-70
2024/01/02 12:35:25;;;;;;;30.00;5.20;;;;;;;;;;5073006;28;20472;-70
2024/01/02 12:37:55;;;;;;;33.95;5.88;;;;;;;;;;5074410;28;20048;-70
2024/01/02 12:40:23;;;;;;;28.55;5.65;;;;;;;;;;5073079;28;20401;-70
2024/01/02 12:42:50;;;;;;;29.88;6.15;;;;;;;;;;5074599;28;20036;-70
2024/01/02 12:45:22;;;;;;;29.70;5.30;;;;;;;;;;5072942;28;20048;-71
2024/01/02 12:47:48;;;;;;;29.70;6.22;;;;;;;;;;5074539;28;20053;-71
2024/01/02 12:50:16;;;;;;;33.53;5.63;;;;;;;;;;5073990;28;20490;-71
2024/01/02 12:52:45;;;;;;;32.95;6.20;;;;;;;;;;5056240;28;20040;-71
2024/01/02 12:55:12;;;;;;;28.88;5.82;;;;;;;;;;5072040;28;20040;-71
2024/01/02 12:57:38;;;;;;;42.40;6.38;;;;;;;;;;5074206;28;20032;-73
2024/01/02 13:00:05;;;;;;;34.78;6.35;;;;;;;;;;5073069;28;20115;-71
2024/01/02 13:02:36;;;;;;;35.80;6.45;;;;;;;;;;5073824;28;20137;-71
2024/01/02 13:05:03;;;;;;;39.45;6.72;;;;;;;;;;5056112;28;20044;-71
2024/01/02 13:07:31;;;;;;;33.22;6.38;;;;;;;;;;5072479;28;20044;-71
2024/01/02 13:10:00;;;;;;;36.72;6.55;;;;;;;;;;5072409;28;20041;-71
2024/01/02 13:12:26;;;;;;;32.97;5.65;;;;;;;;;;5055875;28;20042;-71
2024/01/02 13:14:53;;;;;;;36.80;7.03;;;;;;;;;;5073854;28;20071;-71
2024/01/02 13:17:19;;;;;;;42.40;6.85;;;;;;;;;;5072258;28;20045;-71
2024/01/02 13:19:45;;;;;;;39.58;6.55;;;;;;;;;;5072541;28;20040;-71
2024/01/02 13:22:20;;;;;;;38.90;7.38;;;;;;;;;;5072122;28;20497;-71
2024/01/02 13:24:47;;;;;;;35.70;7.53;;;;;;;;;;5072182;28;20052;-71
2024/01/02 13:27:17;;;;;;;38.58;8.13;;;;;;;;;;5072392;28;20055;-71
2024/01/02 13:29:47;;;;;;;39.42;7.78;;;;;;;;;;5072356;28;20044;-71
2024/01/02 13:32:13;;;;;;;35.17;7.50;;;;;;;;;;5073544;28;20090;-71
2024/01/02 13:34:39;;;;;;;31.30;6.65;;;;;;;;;;5072035;28;20045;-71
2024/01/02 13:37:05;;;;;;;38.97;7.28;;;;;;;;;;5072294;28;20082;-71
2024/01/02 13:39:32;;;;;;;39.80;6.95;;;;;;;;;;5072223;28;20047;-71
2024/01/02 13:41:58;;;;;;;39.65;6.05;;;;;;;;;;5072232;28;20493;-71
2024/01/02 13:44:24;;;;;;;39.42;7.25;;;;;;;;;;5073378;28;20044;-71
2024/01/02 13:46:50;;;;;;;35.10;6.78;;;;;;;;;;5072177;28;20036;-71
2024/01/02 13:49:16;;;;;;;37.50;7.00;;;;;;;;;;5071907;28;20416;-71
2024/01/02 13:51:48;;;;;;;40.90;7.40;;;;;;;;;;5071884;28;20040;-71
2024/01/02 13:54:15;;;;;;;48.25;8.48;;;;;;;;;;5071731;28;20044;-71
2024/01/02 13:56:50;;;;;;;37.95;7.57;;;;;;;;;;5072058;28;20040;-71
2024/01/02 13:59:16;;;;;;;42.00;7.53;;;;;;;;;;5071667;28;20052;-71
2024/01/02 14:01:46;;;;;;;43.47;7.40;;;;;;;;;;5072967;28;20397;-71
2024/01/02 14:04:25;;;;;;;43.20;8.57;;;;;;;;;;5071858;28;20093;-71
2024/01/02 14:06:51;;;;;;;41.65;9.10;;;;;;;;;;5077052;28;20044;-71
2024/01/02 14:09:22;;;;;;;41.17;8.95;;;;;;;;;;5077392;28;20086;-71
2024/01/02 14:12:10;;;;;;;38.15;9.48;;;;;;;;;;5076101;28;20044;-71
2024/01/02 14:14:48;;;;;;;35.08;8.90;;;;;;;;;;5075719;28;20537;-71
2024/01/02 14:17:24;;;;;;;32.97;8.82;;;;;;;;;;5077287;28;20115;-71
2024/01/02 14:19:52;;;;;;;28.42;8.93;;;;;;;;;;5076012;28;20044;-71
2024/01/02 14:22:25;;;;;;;22.50;8.77;;;;;;;;;;5075561;28;20457;-71
2024/01/02 14:24:56;;;;;;;22.23;7.30;;;;;;;;;;5075670;28;20548;-71
2024/01/02 14:27:25;;;;;;;17.08;6.93;;;;;;;;;;5077108;28;20044;-71
2024/01/02 14:29:57;;;;;;;18.55;6.15;;;;;;;;;;5077019;28;20079;-71
2024/01/02 14:32:26;;;;;;;11.25;4.88;;;;;;;;;;5077158;28;20074;-71
2024/01/02 14:35:16;;;;;;;11.88;4.50;;;;;;;;;;5075389;28;20059;-71
2024/01/02 14:37:42;;;;;;;11.80;4.50;;;;;;;;;;5076864;28;20044;-71